sensor_id;sensor_type;location;lat;lon;timestamp;temperature;humidity
75372;HTU21D;63956;52.006;5.878;2022-10-16T00:01:50;14.74;72.57
75372;HTU21D;63956;52.006;5.878;2022-10-16T00:04:20;14.74;72.45
75372;HTU21D;63956;52.006;5.878;2022-10-16T00:06:49;14.73;72.45
75372;HTU21D;63956;52.006;5.878;2022-10-16T00:09:18;14.70;72.38
75372;HTU21D;63956;52.006;5.878;2022-10-16T00:11:47;14.69;72.53
75372;HTU21D;63956;52.006;5.878;2022-10-16T00:14:18;14.74;72.59
75372;HTU21D;63956;52.006;5.878;2022-10-16T00:16:48;14.68;72.27
75372;HTU21D;63956;52.006;5.878;2022-10-16T00:19:17;14.64;72.58
75372;HTU21D;63956;52.006;5.878;2022-10-16T00:21:46;14.62;72.19
75372;HTU21D;63956;52.006;5.878;2022-10-16T00:24:15;14.64;72.28
75372;HTU21D;63956;52.006;5.878;2022-10-16T00:26:44;14.64;72.50
75372;HTU21D;63956;52.006;5.878;2022-10-16T00:29:13;14.64;72.35
75372;HTU21D;63956;52.006;5.878;2022-10-16T00:31:45;14.66;72.38
75372;HTU21D;63956;52.006;5.878;2022-10-16T00:34:14;14.65;72.29
75372;HTU21D;63956;52.006;5.878;2022-10-16T00:36:43;14.64;72.32
75372;HTU21D;63956;52.006;5.878;2022-10-16T00:39:12;14.64;72.27
75372;HTU21D;63956;52.006;5.878;2022-10-16T00:41:41;14.63;72.29
75372;HTU21D;63956;52.006;5.878;2022-10-16T00:44:42;14.67;72.37
75372;HTU21D;63956;52.006;5.878;2022-10-16T00:47:19;14.66;72.35
75372;HTU21D;63956;52.006;5.878;2022-10-16T00:49:50;14.62;72.38
75372;HTU21D;63956;52.006;5.878;2022-10-16T00:52:20;14.63;72.28
75372;HTU21D;63956;52.006;5.878;2022-10-16T00:54:50;14.63;72.31
75372;HTU21D;63956;52.006;5.878;2022-10-16T00:57:20;14.65;72.25
75372;HTU21D;63956;52.006;5.878;2022-10-16T00:59:50;14.65;72.32
75372;HTU21D;63956;52.006;5.878;2022-10-16T01:02:22;14.66;72.68
75372;HTU21D;63956;52.006;5.878;2022-10-16T01:04:53;14.67;72.41
75372;HTU21D;63956;52.006;5.878;2022-10-16T01:07:36;14.69;72.49
75372;HTU21D;63956;52.006;5.878;2022-10-16T01:10:11;14.66;72.75
75372;HTU21D;63956;52.006;5.878;2022-10-16T01:12:46;14.67;72.52
75372;HTU21D;63956;52.006;5.878;2022-10-16T01:15:22;14.68;72.61
75372;HTU21D;63956;52.006;5.878;2022-10-16T01:18:00;14.70;72.61
75372;HTU21D;63956;52.006;5.878;2022-10-16T01:20:35;14.68;72.51
75372;HTU21D;63956;52.006;5.878;2022-10-16T01:23:12;14.70;72.72
75372;HTU21D;63956;52.006;5.878;2022-10-16T01:26:03;14.72;72.67
75372;HTU21D;63956;52.006;5.878;2022-10-16T01:28:41;14.74;72.69
75372;HTU21D;63956;52.006;5.878;2022-10-16T01:31:13;14.71;72.57
75372;HTU21D;63956;52.006;5.878;2022-10-16T01:33:45;14.74;72.57
75372;HTU21D;63956;52.006;5.878;2022-10-16T01:36:20;14.75;72.90
75372;HTU21D;63956;52.006;5.878;2022-10-16T01:38:51;14.74;72.74
75372;HTU21D;63956;52.006;5.878;2022-10-16T01:41:26;14.78;72.72
75372;HTU21D;63956;52.006;5.878;2022-10-16T01:44:02;14.80;72.67
75372;HTU21D;63956;52.006;5.878;2022-10-16T01:46:36;14.77;72.85
75372;HTU21D;63956;52.006;5.878;2022-10-16T01:49:06;14.75;72.75
75372;HTU21D;63956;52.006;5.878;2022-10-16T01:51:37;14.75;72.75
75372;HTU21D;63956;52.006;5.878;2022-10-16T01:54:08;14.79;72.77
75372;HTU21D;63956;52.006;5.878;2022-10-16T01:56:38;14.79;72.77
75372;HTU21D;63956;52.006;5.878;2022-10-16T01:59:14;14.83;72.70
75372;HTU21D;63956;52.006;5.878;2022-10-16T02:01:47;14.83;72.67
75372;HTU21D;63956;52.006;5.878;2022-10-16T02:04:20;14.84;72.67
75372;HTU21D;63956;52.006;5.878;2022-10-16T02:06:50;14.84;72.70
75372;HTU21D;63956;52.006;5.878;2022-10-16T02:09:21;14.82;72.75
75372;HTU21D;63956;52.006;5.878;2022-10-16T02:11:53;14.86;72.89
75372;HTU21D;63956;52.006;5.878;2022-10-16T02:14:26;14.91;72.48
75372;HTU21D;63956;52.006;5.878;2022-10-16T02:16:55;14.89;72.55
75372;HTU21D;63956;52.006;5.878;2022-10-16T02:19:24;14.96;72.67
75372;HTU21D;63956;52.006;5.878;2022-10-16T02:21:55;14.89;72.74
75372;HTU21D;63956;52.006;5.878;2022-10-16T02:24:33;14.91;72.58
75372;HTU21D;63956;52.006;5.878;2022-10-16T02:27:08;14.87;72.71
75372;HTU21D;63956;52.006;5.878;2022-10-16T02:29:46;14.88;72.67
75372;HTU21D;63956;52.006;5.878;2022-10-16T02:32:20;14.87;72.86
75372;HTU21D;63956;52.006;5.878;2022-10-16T02:34:51;14.92;72.83
75372;HTU21D;63956;52.006;5.878;2022-10-16T02:37:21;14.86;72.78
75372;HTU21D;63956;52.006;5.878;2022-10-16T02:39:50;14.82;72.83
75372;HTU21D;63956;52.006;5.878;2022-10-16T02:42:20;14.83;72.85
75372;HTU21D;63956;52.006;5.878;2022-10-16T02:44:51;14.87;72.91
75372;HTU21D;63956;52.006;5.878;2022-10-16T02:47:20;14.81;72.96
75372;HTU21D;63956;52.006;5.878;2022-10-16T02:49:49;14.84;72.95
75372;HTU21D;63956;52.006;5.878;2022-10-16T02:52:18;14.78;72.90
75372;HTU21D;63956;52.006;5.878;2022-10-16T02:54:47;14.73;73.05
75372;HTU21D;63956;52.006;5.878;2022-10-16T02:57:16;14.71;73.23
75372;HTU21D;63956;52.006;5.878;2022-10-16T02:59:45;14.70;73.16
75372;HTU21D;63956;52.006;5.878;2022-10-16T03:02:17;14.71;73.25
75372;HTU21D;63956;52.006;5.878;2022-10-16T03:04:46;14.72;73.17
75372;HTU21D;63956;52.006;5.878;2022-10-16T03:07:15;14.73;73.30
75372;HTU21D;63956;52.006;5.878;2022-10-16T03:09:45;14.78;73.24
75372;HTU21D;63956;52.006;5.878;2022-10-16T03:12:14;14.81;73.12
75372;HTU21D;63956;52.006;5.878;2022-10-16T03:14:43;14.88;73.06
75372;HTU21D;63956;52.006;5.878;2022-10-16T03:17:12;14.86;72.89
75372;HTU21D;63956;52.006;5.878;2022-10-16T03:19:45;14.83;72.95
75372;HTU21D;63956;52.006;5.878;2022-10-16T03:22:14;14.83;73.03
75372;HTU21D;63956;52.006;5.878;2022-10-16T03:24:43;14.84;72.96
75372;HTU21D;63956;52.006;5.878;2022-10-16T03:27:12;14.88;73.03
75372;HTU21D;63956;52.006;5.878;2022-10-16T03:29:41;14.82;72.86
75372;HTU21D;63956;52.006;5.878;2022-10-16T03:32:10;14.86;73.03
75372;HTU21D;63956;52.006;5.878;2022-10-16T03:34:39;14.81;72.91
75372;HTU21D;63956;52.006;5.878;2022-10-16T03:37:12;14.79;72.87
75372;HTU21D;63956;52.006;5.878;2022-10-16T03:39:41;14.78;72.94
75372;HTU21D;63956;52.006;5.878;2022-10-16T03:42:10;14.81;73.05
75372;HTU21D;63956;52.006;5.878;2022-10-16T03:44:39;14.75;73.03
75372;HTU21D;63956;52.006;5.878;2022-10-16T03:47:08;14.77;72.99
75372;HTU21D;63956;52.006;5.878;2022-10-16T03:49:37;14.78;72.96
75372;HTU21D;63956;52.006;5.878;2022-10-16T03:52:06;14.77;73.07
75372;HTU21D;63956;52.006;5.878;2022-10-16T03:54:38;14.79;73.04
75372;HTU21D;63956;52.006;5.878;2022-10-16T03:57:07;14.79;73.21
75372;HTU21D;63956;52.006;5.878;2022-10-16T03:59:36;14.86;73.02
75372;HTU21D;63956;52.006;5.878;2022-10-16T04:02:05;14.80;72.95
75372;HTU21D;63956;52.006;5.878;2022-10-16T04:04:33;14.82;73.05
75372;HTU21D;63956;52.006;5.878;2022-10-16T04:07:02;14.77;72.96
75372;HTU21D;63956;52.006;5.878;2022-10-16T04:09:31;14.80;73.04
75372;HTU21D;63956;52.006;5.878;2022-10-16T04:12:03;14.77;72.99
75372;HTU21D;63956;52.006;5.878;2022-10-16T04:14:32;14.74;72.84
75372;HTU21D;63956;52.006;5.878;2022-10-16T04:17:01;14.74;72.91
75372;HTU21D;63956;52.006;5.878;2022-10-16T04:19:30;14.74;73.05
75372;HTU21D;63956;52.006;5.878;2022-10-16T04:21:59;14.75;72.90
75372;HTU21D;63956;52.006;5.878;2022-10-16T04:24:29;14.77;72.87
75372;HTU21D;63956;52.006;5.878;2022-10-16T04:26:57;14.84;72.92
75372;HTU21D;63956;52.006;5.878;2022-10-16T04:29:29;14.82;72.72
75372;HTU21D;63956;52.006;5.878;2022-10-16T04:31:58;14.81;72.83
75372;HTU21D;63956;52.006;5.878;2022-10-16T04:34:27;14.81;72.93
75372;HTU21D;63956;52.006;5.878;2022-10-16T04:36:56;14.88;72.83
75372;HTU21D;63956;52.006;5.878;2022-10-16T04:39:25;14.85;72.64
75372;HTU21D;63956;52.006;5.878;2022-10-16T04:41:54;14.82;72.99
75372;HTU21D;63956;52.006;5.878;2022-10-16T04:44:23;14.80;72.81
75372;HTU21D;63956;52.006;5.878;2022-10-16T04:46:55;14.80;72.99
75372;HTU21D;63956;52.006;5.878;2022-10-16T04:49:24;14.75;72.95
75372;HTU21D;63956;52.006;5.878;2022-10-16T04:51:53;14.74;72.93
75372;HTU21D;63956;52.006;5.878;2022-10-16T04:54:22;14.73;73.15
75372;HTU21D;63956;52.006;5.878;2022-10-16T04:56:51;14.75;73.04
75372;HTU21D;63956;52.006;5.878;2022-10-16T04:59:21;14.77;72.88
75372;HTU21D;63956;52.006;5.878;2022-10-16T05:01:50;14.78;72.76
75372;HTU21D;63956;52.006;5.878;2022-10-16T05:04:22;14.75;72.83
75372;HTU21D;63956;52.006;5.878;2022-10-16T05:06:51;14.75;72.92
75372;HTU21D;63956;52.006;5.878;2022-10-16T05:09:20;14.74;72.90
75372;HTU21D;63956;52.006;5.878;2022-10-16T05:11:49;14.73;72.95
75372;HTU21D;63956;52.006;5.878;2022-10-16T05:14:18;14.80;72.90
75372;HTU21D;63956;52.006;5.878;2022-10-16T05:16:47;14.75;72.72
75372;HTU21D;63956;52.006;5.878;2022-10-16T05:19:16;14.71;72.83
75372;HTU21D;63956;52.006;5.878;2022-10-16T05:21:48;14.74;72.92
75372;HTU21D;63956;52.006;5.878;2022-10-16T05:24:17;14.67;72.90
75372;HTU21D;63956;52.006;5.878;2022-10-16T05:26:46;14.63;72.99
75372;HTU21D;63956;52.006;5.878;2022-10-16T05:29:15;14.58;73.10
75372;HTU21D;63956;52.006;5.878;2022-10-16T05:31:44;14.65;73.09
75372;HTU21D;63956;52.006;5.878;2022-10-16T05:34:13;14.58;73.03
75372;HTU21D;63956;52.006;5.878;2022-10-16T05:36:42;14.54;73.18
75372;HTU21D;63956;52.006;5.878;2022-10-16T05:39:14;14.56;73.20
75372;HTU21D;63956;52.006;5.878;2022-10-16T05:41:44;14.48;73.28
75372;HTU21D;63956;52.006;5.878;2022-10-16T05:44:13;14.44;73.26
75372;HTU21D;63956;52.006;5.878;2022-10-16T05:46:42;14.48;73.30
75372;HTU21D;63956;52.006;5.878;2022-10-16T05:49:11;14.42;73.26
75372;HTU21D;63956;52.006;5.878;2022-10-16T05:51:40;14.39;73.33
75372;HTU21D;63956;52.006;5.878;2022-10-16T05:54:10;14.39;73.36
75372;HTU21D;63956;52.006;5.878;2022-10-16T05:56:42;14.38;73.42
75372;HTU21D;63956;52.006;5.878;2022-10-16T05:59:11;14.36;73.42
75372;HTU21D;63956;52.006;5.878;2022-10-16T06:01:40;14.42;73.33
75372;HTU21D;63956;52.006;5.878;2022-10-16T06:04:09;14.36;73.34
75372;HTU21D;63956;52.006;5.878;2022-10-16T06:06:38;14.33;73.42
75372;HTU21D;63956;52.006;5.878;2022-10-16T06:09:08;14.30;73.52
75372;HTU21D;63956;52.006;5.878;2022-10-16T06:11:38;14.29;73.65
75372;HTU21D;63956;52.006;5.878;2022-10-16T06:14:10;14.32;73.57
75372;HTU21D;63956;52.006;5.878;2022-10-16T06:16:39;14.32;73.55
75372;HTU21D;63956;52.006;5.878;2022-10-16T06:19:08;14.38;73.41
75372;HTU21D;63956;52.006;5.878;2022-10-16T06:21:37;14.38;73.41
75372;HTU21D;63956;52.006;5.878;2022-10-16T06:24:06;14.43;73.28
75372;HTU21D;63956;52.006;5.878;2022-10-16T06:26:35;14.41;73.38
75372;HTU21D;63956;52.006;5.878;2022-10-16T06:29:04;14.41;73.35
75372;HTU21D;63956;52.006;5.878;2022-10-16T06:31:36;14.43;73.44
75372;HTU21D;63956;52.006;5.878;2022-10-16T06:34:05;14.45;73.39
75372;HTU21D;63956;52.006;5.878;2022-10-16T06:36:37;14.49;73.36
75372;HTU21D;63956;52.006;5.878;2022-10-16T06:39:06;14.51;73.35
75372;HTU21D;63956;52.006;5.878;2022-10-16T06:41:35;14.52;73.42
75372;HTU21D;63956;52.006;5.878;2022-10-16T06:44:15;14.54;73.32
75372;HTU21D;63956;52.006;5.878;2022-10-16T06:46:46;14.59;73.45
75372;HTU21D;63956;52.006;5.878;2022-10-16T06:49:15;14.59;73.28
75372;HTU21D;63956;52.006;5.878;2022-10-16T06:51:48;14.62;73.27
75372;HTU21D;63956;52.006;5.878;2022-10-16T06:54:17;14.65;73.26
75372;HTU21D;63956;52.006;5.878;2022-10-16T06:56:46;14.66;73.26
75372;HTU21D;63956;52.006;5.878;2022-10-16T06:59:15;14.75;73.12
75372;HTU21D;63956;52.006;5.878;2022-10-16T07:01:47;14.77;73.05
75372;HTU21D;63956;52.006;5.878;2022-10-16T07:04:16;14.75;73.25
75372;HTU21D;63956;52.006;5.878;2022-10-16T07:06:45;14.79;73.14
75372;HTU21D;63956;52.006;5.878;2022-10-16T07:09:14;14.82;73.10
75372;HTU21D;63956;52.006;5.878;2022-10-16T07:11:43;14.93;72.96
75372;HTU21D;63956;52.006;5.878;2022-10-16T07:14:18;14.92;72.87
75372;HTU21D;63956;52.006;5.878;2022-10-16T07:16:50;14.91;73.07
75372;HTU21D;63956;52.006;5.878;2022-10-16T07:19:19;14.93;72.98
75372;HTU21D;63956;52.006;5.878;2022-10-16T07:21:48;14.95;72.99
75372;HTU21D;63956;52.006;5.878;2022-10-16T07:24:17;14.96;73.17
75372;HTU21D;63956;52.006;5.878;2022-10-16T07:26:46;15.06;72.93
75372;HTU21D;63956;52.006;5.878;2022-10-16T07:29:18;15.00;73.00
75372;HTU21D;63956;52.006;5.878;2022-10-16T07:31:50;15.04;73.14
75372;HTU21D;63956;52.006;5.878;2022-10-16T07:34:20;15.11;72.81
75372;HTU21D;63956;52.006;5.878;2022-10-16T07:36:50;15.18;72.77
75372;HTU21D;63956;52.006;5.878;2022-10-16T07:39:19;15.26;72.65
75372;HTU21D;63956;52.006;5.878;2022-10-16T07:41:48;15.40;72.51
75372;HTU21D;63956;52.006;5.878;2022-10-16T07:44:17;15.37;72.54
75372;HTU21D;63956;52.006;5.878;2022-10-16T07:46:46;15.37;72.55
75372;HTU21D;63956;52.006;5.878;2022-10-16T07:49:18;15.43;72.46
75372;HTU21D;63956;52.006;5.878;2022-10-16T07:51:47;15.42;72.49
75372;HTU21D;63956;52.006;5.878;2022-10-16T07:54:16;15.56;72.39
75372;HTU21D;63956;52.006;5.878;2022-10-16T07:56:45;15.56;72.32
75372;HTU21D;63956;52.006;5.878;2022-10-16T07:59:14;15.59;72.19
75372;HTU21D;63956;52.006;5.878;2022-10-16T08:01:43;15.62;72.23
75372;HTU21D;63956;52.006;5.878;2022-10-16T08:04:12;15.66;71.98
75372;HTU21D;63956;52.006;5.878;2022-10-16T08:06:44;15.77;72.09
75372;HTU21D;63956;52.006;5.878;2022-10-16T08:09:13;15.89;71.78
75372;HTU21D;63956;52.006;5.878;2022-10-16T08:11:42;16.02;71.54
75372;HTU21D;63956;52.006;5.878;2022-10-16T08:14:11;16.10;71.26
75372;HTU21D;63956;52.006;5.878;2022-10-16T08:16:41;16.15;71.38
75372;HTU21D;63956;52.006;5.878;2022-10-16T08:19:10;16.32;70.97
75372;HTU21D;63956;52.006;5.878;2022-10-16T08:21:40;16.45;70.46
75372;HTU21D;63956;52.006;5.878;2022-10-16T08:24:12;16.49;70.64
75372;HTU21D;63956;52.006;5.878;2022-10-16T08:26:41;16.45;70.55
75372;HTU21D;63956;52.006;5.878;2022-10-16T08:29:10;16.45;70.61
75372;HTU21D;63956;52.006;5.878;2022-10-16T08:31:39;16.45;70.40
75372;HTU21D;63956;52.006;5.878;2022-10-16T08:34:08;16.40;70.49
75372;HTU21D;63956;52.006;5.878;2022-10-16T08:36:37;16.34;70.87
75372;HTU21D;63956;52.006;5.878;2022-10-16T08:39:06;16.32;70.68
75372;HTU21D;63956;52.006;5.878;2022-10-16T08:47:48;16.35;70.76
75372;HTU21D;63956;52.006;5.878;2022-10-16T08:50:22;16.35;70.84
75372;HTU21D;63956;52.006;5.878;2022-10-16T08:52:54;16.35;70.65
75372;HTU21D;63956;52.006;5.878;2022-10-16T08:55:33;16.37;70.70
75372;HTU21D;63956;52.006;5.878;2022-10-16T08:58:13;16.41;70.59
75372;HTU21D;63956;52.006;5.878;2022-10-16T09:00:45;16.44;70.35
75372;HTU21D;63956;52.006;5.878;2022-10-16T09:03:21;16.46;70.26
75372;HTU21D;63956;52.006;5.878;2022-10-16T09:06:13;16.50;70.52
75372;HTU21D;63956;52.006;5.878;2022-10-16T09:08:55;16.48;70.28
75372;HTU21D;63956;52.006;5.878;2022-10-16T09:11:34;16.54;70.14
75372;HTU21D;63956;52.006;5.878;2022-10-16T09:14:18;16.54;70.23
75372;HTU21D;63956;52.006;5.878;2022-10-16T09:16:53;16.55;70.15
75372;HTU21D;63956;52.006;5.878;2022-10-16T09:19:29;16.60;70.10
75372;HTU21D;63956;52.006;5.878;2022-10-16T09:22:04;16.66;69.72
75372;HTU21D;63956;52.006;5.878;2022-10-16T09:24:38;16.70;69.40
75372;HTU21D;63956;52.006;5.878;2022-10-16T09:27:08;16.71;69.53
75372;HTU21D;63956;52.006;5.878;2022-10-16T09:29:41;16.74;69.40
75372;HTU21D;63956;52.006;5.878;2022-10-16T09:32:13;16.78;68.94
75372;HTU21D;63956;52.006;5.878;2022-10-16T09:34:47;16.81;69.18
75372;HTU21D;63956;52.006;5.878;2022-10-16T09:37:19;16.84;69.00
75372;HTU21D;63956;52.006;5.878;2022-10-16T09:39:50;16.84;68.80
75372;HTU21D;63956;52.006;5.878;2022-10-16T09:42:21;16.86;68.71
75372;HTU21D;63956;52.006;5.878;2022-10-16T09:44:54;16.93;68.45
75372;HTU21D;63956;52.006;5.878;2022-10-16T09:47:25;17.00;68.26
75372;HTU21D;63956;52.006;5.878;2022-10-16T09:49:56;17.00;68.63
75372;HTU21D;63956;52.006;5.878;2022-10-16T09:52:29;17.01;68.22
75372;HTU21D;63956;52.006;5.878;2022-10-16T09:55:00;17.02;68.57
75372;HTU21D;63956;52.006;5.878;2022-10-16T09:57:29;17.05;68.41
75372;HTU21D;63956;52.006;5.878;2022-10-16T10:00:09;17.13;68.53
75372;HTU21D;63956;52.006;5.878;2022-10-16T10:02:41;17.17;68.39
75372;HTU21D;63956;52.006;5.878;2022-10-16T10:05:18;17.26;67.89
75372;HTU21D;63956;52.006;5.878;2022-10-16T10:07:54;17.32;68.15
75372;HTU21D;63956;52.006;5.878;2022-10-16T10:10:25;17.41;67.59
75372;HTU21D;63956;52.006;5.878;2022-10-16T10:12:55;17.49;67.38
75372;HTU21D;63956;52.006;5.878;2022-10-16T10:15:32;17.53;67.78
75372;HTU21D;63956;52.006;5.878;2022-10-16T10:18:02;17.55;67.67
75372;HTU21D;63956;52.006;5.878;2022-10-16T10:20:33;17.60;66.85
75372;HTU21D;63956;52.006;5.878;2022-10-16T10:23:20;17.65;67.41
75372;HTU21D;63956;52.006;5.878;2022-10-16T10:25:52;17.65;67.28
75372;HTU21D;63956;52.006;5.878;2022-10-16T10:28:51;17.72;66.94
75372;HTU21D;63956;52.006;5.878;2022-10-16T10:31:31;17.72;66.53
75372;HTU21D;63956;52.006;5.878;2022-10-16T10:34:13;17.68;66.71
75372;HTU21D;63956;52.006;5.878;2022-10-16T10:36:50;17.72;66.39
75372;HTU21D;63956;52.006;5.878;2022-10-16T10:39:27;17.76;65.62
75372;HTU21D;63956;52.006;5.878;2022-10-16T10:42:17;17.77;65.82
75372;HTU21D;63956;52.006;5.878;2022-10-16T10:45:01;17.75;65.72
75372;HTU21D;63956;52.006;5.878;2022-10-16T10:47:42;17.79;65.81
75372;HTU21D;63956;52.006;5.878;2022-10-16T10:50:19;17.87;65.46
75372;HTU21D;63956;52.006;5.878;2022-10-16T10:52:56;18.04;65.33
75372;HTU21D;63956;52.006;5.878;2022-10-16T10:55:33;18.10;64.69
75372;HTU21D;63956;52.006;5.878;2022-10-16T10:58:40;18.18;64.29
75372;HTU21D;63956;52.006;5.878;2022-10-16T11:01:14;18.27;62.81
75372;HTU21D;63956;52.006;5.878;2022-10-16T11:04:07;18.37;63.59
75372;HTU21D;63956;52.006;5.878;2022-10-16T11:06:43;18.47;62.47
75372;HTU21D;63956;52.006;5.878;2022-10-16T11:09:17;18.63;62.79
75372;HTU21D;63956;52.006;5.878;2022-10-16T11:11:49;18.84;62.81
75372;HTU21D;63956;52.006;5.878;2022-10-16T11:14:23;18.70;62.58
75372;HTU21D;63956;52.006;5.878;2022-10-16T11:16:57;18.67;63.18
75372;HTU21D;63956;52.006;5.878;2022-10-16T11:19:36;18.74;62.76
75372;HTU21D;63956;52.006;5.878;2022-10-16T11:22:13;18.82;62.11
75372;HTU21D;63956;52.006;5.878;2022-10-16T11:24:46;18.85;61.80
75372;HTU21D;63956;52.006;5.878;2022-10-16T11:27:20;18.89;60.93
75372;HTU21D;63956;52.006;5.878;2022-10-16T11:30:02;18.84;61.09
75372;HTU21D;63956;52.006;5.878;2022-10-16T11:32:38;18.77;60.41
75372;HTU21D;63956;52.006;5.878;2022-10-16T11:35:18;18.74;60.88
75372;HTU21D;63956;52.006;5.878;2022-10-16T11:37:49;18.80;60.86
75372;HTU21D;63956;52.006;5.878;2022-10-16T11:40:24;18.78;60.54
75372;HTU21D;63956;52.006;5.878;2022-10-16T11:42:58;18.76;60.95
75372;HTU21D;63956;52.006;5.878;2022-10-16T11:45:34;18.71;60.47
75372;HTU21D;63956;52.006;5.878;2022-10-16T11:48:12;18.73;60.03
75372;HTU21D;63956;52.006;5.878;2022-10-16T11:50:51;18.86;60.09
75372;HTU21D;63956;52.006;5.878;2022-10-16T11:53:35;19.00;60.05
75372;HTU21D;63956;52.006;5.878;2022-10-16T11:56:06;19.13;59.46
75372;HTU21D;63956;52.006;5.878;2022-10-16T11:58:39;19.25;59.07
75372;HTU21D;63956;52.006;5.878;2022-10-16T12:01:17;19.26;59.29
75372;HTU21D;63956;52.006;5.878;2022-10-16T12:03:57;19.30;58.87
75372;HTU21D;63956;52.006;5.878;2022-10-16T12:06:35;19.35;58.68
75372;HTU21D;63956;52.006;5.878;2022-10-16T12:09:14;19.42;58.39
75372;HTU21D;63956;52.006;5.878;2022-10-16T12:11:44;19.48;57.38
75372;HTU21D;63956;52.006;5.878;2022-10-16T12:14:22;19.56;58.00
75372;HTU21D;63956;52.006;5.878;2022-10-16T12:17:03;19.69;56.55
75372;HTU21D;63956;52.006;5.878;2022-10-16T12:19:34;19.69;56.48
75372;HTU21D;63956;52.006;5.878;2022-10-16T12:22:17;19.68;57.21
75372;HTU21D;63956;52.006;5.878;2022-10-16T12:24:51;19.66;57.50
75372;HTU21D;63956;52.006;5.878;2022-10-16T12:27:24;19.61;56.24
75372;HTU21D;63956;52.006;5.878;2022-10-16T12:29:57;19.54;56.39
75372;HTU21D;63956;52.006;5.878;2022-10-16T12:32:30;19.44;56.83
75372;HTU21D;63956;52.006;5.878;2022-10-16T12:35:00;19.42;56.26
75372;HTU21D;63956;52.006;5.878;2022-10-16T12:37:34;19.42;56.52
75372;HTU21D;63956;52.006;5.878;2022-10-16T12:40:13;19.55;56.75
75372;HTU21D;63956;52.006;5.878;2022-10-16T12:42:42;19.61;55.78
75372;HTU21D;63956;52.006;5.878;2022-10-16T12:45:26;19.66;56.23
75372;HTU21D;63956;52.006;5.878;2022-10-16T12:47:56;19.65;54.94
75372;HTU21D;63956;52.006;5.878;2022-10-16T12:50:32;19.69;55.25
75372;HTU21D;63956;52.006;5.878;2022-10-16T12:53:18;19.75;55.69
75372;HTU21D;63956;52.006;5.878;2022-10-16T12:55:54;19.87;55.36
75372;HTU21D;63956;52.006;5.878;2022-10-16T12:58:47;20.25;54.48
75372;HTU21D;63956;52.006;5.878;2022-10-16T13:01:27;21.11;53.23
75372;HTU21D;63956;52.006;5.878;2022-10-16T13:04:25;21.29;52.55
75372;HTU21D;63956;52.006;5.878;2022-10-16T13:07:13;21.20;54.10
75372;HTU21D;63956;52.006;5.878;2022-10-16T13:10:00;21.61;52.58
75372;HTU21D;63956;52.006;5.878;2022-10-16T13:12:49;22.18;51.01
75372;HTU21D;63956;52.006;5.878;2022-10-16T13:15:35;22.66;50.25
75372;HTU21D;63956;52.006;5.878;2022-10-16T13:18:10;22.86;50.85
75372;HTU21D;63956;52.006;5.878;2022-10-16T13:20:55;22.78;50.69
75372;HTU21D;63956;52.006;5.878;2022-10-16T13:23:29;23.59;49.64
75372;HTU21D;63956;52.006;5.878;2022-10-16T13:26:09;24.50;47.22
75372;HTU21D;63956;52.006;5.878;2022-10-16T13:28:39;25.18;45.56
75372;HTU21D;63956;52.006;5.878;2022-10-16T13:31:15;25.32;45.54
75372;HTU21D;63956;52.006;5.878;2022-10-16T13:33:48;25.52;45.18
75372;HTU21D;63956;52.006;5.878;2022-10-16T13:36:22;25.68;43.84
75372;HTU21D;63956;52.006;5.878;2022-10-16T13:39:00;25.53;44.28
75372;HTU21D;63956;52.006;5.878;2022-10-16T13:41:35;25.35;45.61
75372;HTU21D;63956;52.006;5.878;2022-10-16T13:44:05;25.01;45.87
75372;HTU21D;63956;52.006;5.878;2022-10-16T13:46:40;24.72;46.86
75372;HTU21D;63956;52.006;5.878;2022-10-16T13:49:14;24.23;47.25
75372;HTU21D;63956;52.006;5.878;2022-10-16T13:51:54;23.69;48.30
75372;HTU21D;63956;52.006;5.878;2022-10-16T13:54:23;23.35;49.35
75372;HTU21D;63956;52.006;5.878;2022-10-16T13:57:04;23.03;48.76
75372;HTU21D;63956;52.006;5.878;2022-10-16T13:59:35;22.88;50.21
75372;HTU21D;63956;52.006;5.878;2022-10-16T14:02:15;22.75;49.20
75372;HTU21D;63956;52.006;5.878;2022-10-16T14:04:47;22.72;50.76
75372;HTU21D;63956;52.006;5.878;2022-10-16T14:07:22;22.66;50.47
75372;HTU21D;63956;52.006;5.878;2022-10-16T14:09:53;22.40;50.32
75372;HTU21D;63956;52.006;5.878;2022-10-16T14:12:25;22.20;52.39
75372;HTU21D;63956;52.006;5.878;2022-10-16T14:14:55;22.05;51.47
75372;HTU21D;63956;52.006;5.878;2022-10-16T14:17:27;21.84;51.04
75372;HTU21D;63956;52.006;5.878;2022-10-16T14:19:59;21.67;52.50
75372;HTU21D;63956;52.006;5.878;2022-10-16T14:22:30;21.63;52.40
75372;HTU21D;63956;52.006;5.878;2022-10-16T14:25:01;21.64;52.88
75372;HTU21D;63956;52.006;5.878;2022-10-16T14:27:35;21.66;52.91
75372;HTU21D;63956;52.006;5.878;2022-10-16T14:30:17;21.66;53.31
75372;HTU21D;63956;52.006;5.878;2022-10-16T14:32:57;21.65;53.56
75372;HTU21D;63956;52.006;5.878;2022-10-16T14:35:30;21.62;53.70
75372;HTU21D;63956;52.006;5.878;2022-10-16T14:38:00;21.62;53.49
75372;HTU21D;63956;52.006;5.878;2022-10-16T14:40:31;21.60;54.04
75372;HTU21D;63956;52.006;5.878;2022-10-16T14:43:04;21.58;53.93
75372;HTU21D;63956;52.006;5.878;2022-10-16T14:45:34;21.52;54.46
75372;HTU21D;63956;52.006;5.878;2022-10-16T14:48:16;21.47;53.62
75372;HTU21D;63956;52.006;5.878;2022-10-16T14:50:46;21.36;55.17
75372;HTU21D;63956;52.006;5.878;2022-10-16T14:53:16;21.20;53.37
75372;HTU21D;63956;52.006;5.878;2022-10-16T14:55:45;21.01;54.24
75372;HTU21D;63956;52.006;5.878;2022-10-16T14:58:20;20.85;55.17
75372;HTU21D;63956;52.006;5.878;2022-10-16T15:00:50;20.74;55.85
75372;HTU21D;63956;52.006;5.878;2022-10-16T15:03:19;20.69;56.81
75372;HTU21D;63956;52.006;5.878;2022-10-16T15:05:49;20.68;57.55
75372;HTU21D;63956;52.006;5.878;2022-10-16T15:08:18;20.68;56.55
75372;HTU21D;63956;52.006;5.878;2022-10-16T15:10:47;20.63;57.26
75372;HTU21D;63956;52.006;5.878;2022-10-16T15:13:19;20.56;57.83
75372;HTU21D;63956;52.006;5.878;2022-10-16T15:15:48;20.44;58.28
75372;HTU21D;63956;52.006;5.878;2022-10-16T15:18:17;20.32;58.41
75372;HTU21D;63956;52.006;5.878;2022-10-16T15:20:49;20.17;59.07
75372;HTU21D;63956;52.006;5.878;2022-10-16T15:23:20;20.05;59.52
75372;HTU21D;63956;52.006;5.878;2022-10-16T15:25:51;19.97;59.89
75372;HTU21D;63956;52.006;5.878;2022-10-16T15:28:24;19.86;60.34
75372;HTU21D;63956;52.006;5.878;2022-10-16T15:30:55;19.79;60.74
75372;HTU21D;63956;52.006;5.878;2022-10-16T15:33:26;19.72;60.84
75372;HTU21D;63956;52.006;5.878;2022-10-16T15:35:59;19.65;61.12
75372;HTU21D;63956;52.006;5.878;2022-10-16T15:38:29;19.54;61.24
75372;HTU21D;63956;52.006;5.878;2022-10-16T15:40:58;19.42;61.55
75372;HTU21D;63956;52.006;5.878;2022-10-16T15:43:30;19.29;61.78
75372;HTU21D;63956;52.006;5.878;2022-10-16T15:46:01;19.22;62.00
75372;HTU21D;63956;52.006;5.878;2022-10-16T15:48:32;19.14;62.18
75372;HTU21D;63956;52.006;5.878;2022-10-16T15:51:05;19.09;62.34
75372;HTU21D;63956;52.006;5.878;2022-10-16T15:53:34;19.07;62.56
75372;HTU21D;63956;52.006;5.878;2022-10-16T15:56:05;19.00;62.68